createdAt,value
2019-05-16T00:01:50.392Z,52.00
2019-05-16T00:04:20.219Z,52.10
2019-05-16T00:06:50.037Z,52.00
2019-05-16T00:09:19.780Z,52.20
2019-05-16T00:11:49.613Z,52.30
2019-05-16T00:14:19.360Z,52.40
2019-05-16T00:16:49.154Z,52.50
2019-05-16T00:19:19.189Z,52.60
2019-05-16T00:21:49.459Z,52.70
2019-05-16T00:24:20.209Z,53.00
2019-05-16T00:26:50.074Z,53.30
2019-05-16T00:29:19.883Z,53.40
2019-05-16T00:31:49.713Z,53.60
2019-05-16T00:34:19.479Z,53.60
2019-05-16T00:36:49.320Z,53.80
2019-05-16T00:39:19.063Z,54.00
2019-05-16T00:41:49.165Z,53.90
2019-05-16T00:44:19.301Z,53.60
2019-05-16T00:46:49.010Z,53.80
2019-05-16T00:49:18.809Z,53.60
2019-05-16T00:51:48.560Z,53.60
2019-05-16T00:54:18.667Z,53.70
2019-05-16T00:56:49.001Z,53.80
2019-05-16T00:59:20.054Z,53.90
2019-05-16T01:01:50.447Z,54.10
2019-05-16T01:04:20.293Z,54.10
2019-05-16T01:06:50.351Z,54.30
2019-05-16T01:09:20.387Z,54.30
2019-05-16T01:11:50.375Z,53.90
2019-05-16T01:14:20.082Z,53.40
2019-05-16T01:16:49.820Z,52.90
2019-05-16T01:19:19.632Z,52.40
2019-05-16T01:21:49.363Z,52.20
2019-05-16T01:24:19.092Z,52.10
2019-05-16T01:26:48.803Z,52.20
2019-05-16T01:29:18.979Z,52.00
2019-05-16T01:31:49.218Z,52.00
2019-05-16T01:34:18.959Z,52.20
2019-05-16T01:36:48.787Z,52.10
2019-05-16T01:39:18.866Z,52.40
2019-05-16T01:41:48.671Z,52.50
2019-05-16T01:44:18.485Z,52.70
2019-05-16T01:46:48.217Z,52.90
2019-05-16T01:49:18.792Z,53.00
2019-05-16T01:51:48.707Z,53.10
2019-05-16T01:54:18.946Z,53.40
2019-05-16T01:56:48.660Z,53.70
2019-05-16T01:59:18.500Z,53.90
2019-05-16T02:01:48.496Z,54.00
2019-05-16T02:04:18.501Z,54.00
2019-05-16T02:06:53.728Z,54.70
2019-05-16T02:09:19.641Z,54.30
2019-05-16T02:11:49.802Z,54.50
2019-05-16T02:14:19.692Z,54.60
2019-05-16T02:16:49.340Z,54.70
2019-05-16T02:19:19.054Z,55.10
2019-05-16T02:21:50.689Z,55.40
2019-05-16T02:24:20.549Z,55.60
2019-05-16T02:26:52.483Z,55.90
2019-05-16T02:29:22.013Z,55.50
2019-05-16T02:31:51.657Z,55.00
2019-05-16T02:34:22.073Z,55.40
2019-05-16T02:37:10.778Z,55.80
2019-05-16T02:39:23.536Z,55.90
2019-05-16T02:41:53.648Z,54.80
2019-05-16T02:44:24.688Z,54.40
2019-05-16T02:46:55.137Z,54.00
2019-05-16T02:49:25.190Z,55.00
2019-05-16T02:51:54.934Z,55.50
2019-05-16T02:54:25.220Z,55.50
2019-05-16T02:56:54.960Z,55.80
2019-05-16T02:59:24.959Z,56.20
2019-05-16T03:01:54.771Z,56.10
2019-05-16T03:04:25.028Z,56.90
2019-05-16T03:06:55.750Z,57.80
2019-05-16T03:09:26.150Z,58.30
2019-05-16T03:12:01.067Z,57.50
2019-05-16T03:14:31.688Z,58.60
2019-05-16T03:17:04.107Z,57.80
2019-05-16T03:19:35.718Z,58.40
2019-05-16T03:22:06.753Z,59.50
2019-05-16T03:24:36.483Z,59.80
2019-05-16T03:27:06.227Z,60.90
2019-05-16T03:29:36.036Z,62.60
2019-05-16T03:32:05.874Z,63.30
2019-05-16T03:34:35.570Z,63.40
2019-05-16T03:37:05.489Z,63.50
2019-05-16T03:39:35.365Z,63.50
2019-05-16T03:42:05.042Z,62.20
2019-05-16T03:44:36.589Z,62.80
2019-05-16T03:47:06.612Z,62.30
2019-05-16T03:49:36.386Z,61.20
2019-05-16T03:52:06.469Z,62.40
2019-05-16T03:54:36.248Z,61.90
2019-05-16T03:57:06.322Z,62.20
2019-05-16T04:03:12.679Z,61.50
2019-05-16T04:21:05.843Z,60.00
2019-05-16T04:23:00.931Z,59.20
2019-05-16T04:25:36.683Z,59.40
2019-05-16T04:28:06.588Z,59.10
2019-05-16T04:30:36.641Z,59.00
2019-05-16T04:33:06.298Z,58.70
2019-05-16T04:35:36.006Z,59.30
2019-05-16T04:38:05.673Z,59.10
2019-05-16T04:40:38.239Z,58.80
2019-05-16T04:43:07.199Z,59.20
2019-05-16T04:45:37.002Z,59.50
2019-05-16T04:48:06.666Z,59.40
2019-05-16T04:50:37.003Z,59.30
2019-05-16T04:53:07.057Z,59.70
2019-05-16T04:55:37.110Z,59.70
2019-05-16T04:58:07.004Z,59.20
2019-05-16T05:00:41.834Z,59.50
2019-05-16T05:03:11.884Z,60.00
2019-05-16T05:05:41.705Z,60.70
2019-05-16T05:08:11.441Z,60.80
2019-05-16T05:10:41.234Z,61.10
2019-05-16T05:13:11.290Z,61.80
2019-05-16T05:15:41.879Z,61.80
2019-05-16T05:18:11.522Z,62.10
2019-05-16T05:20:41.251Z,62.20
2019-05-16T05:23:10.960Z,63.10
2019-05-16T05:25:40.752Z,63.50
2019-05-16T05:28:13.201Z,63.70
2019-05-16T05:30:41.854Z,64.00
2019-05-16T05:33:12.429Z,64.70
2019-05-16T05:35:42.094Z,66.00
2019-05-16T05:38:11.809Z,67.30
2019-05-16T05:40:41.806Z,68.80
2019-05-16T05:43:11.495Z,70.90
2019-05-16T05:45:41.548Z,72.50
2019-05-16T05:48:11.575Z,75.30
2019-05-16T05:50:41.665Z,72.10
2019-05-16T05:53:12.289Z,73.20
2019-05-16T05:55:42.176Z,72.40
2019-05-16T05:58:12.225Z,72.60
2019-05-16T06:00:45.972Z,73.20
2019-05-16T06:03:16.648Z,73.20
2019-05-16T06:05:46.651Z,72.60
2019-05-16T06:08:16.309Z,73.80
2019-05-16T06:10:46.084Z,74.40
2019-05-16T06:13:15.818Z,74.30
2019-05-16T06:15:45.685Z,74.40
2019-05-16T06:18:15.356Z,74.50
2019-05-16T06:20:45.434Z,74.40
2019-05-16T06:23:20.553Z,74.60
2019-05-16T06:25:50.779Z,74.70
2019-05-16T06:28:21.327Z,74.60
2019-05-16T06:30:52.098Z,75.40
2019-05-16T06:33:21.914Z,75.40
2019-05-16T06:35:51.786Z,75.40
2019-05-16T06:38:21.623Z,77.20
2019-05-16T06:40:52.698Z,76.30
2019-05-16T06:43:22.811Z,76.50
2019-05-16T06:45:53.832Z,76.30
2019-05-16T06:48:30.350Z,76.00
2019-05-16T06:51:02.855Z,77.40
2019-05-16T06:53:31.597Z,76.80
2019-05-16T06:56:01.325Z,77.10
2019-05-16T06:58:43.682Z,76.20
2019-05-16T07:01:09.692Z,76.10
2019-05-16T07:03:40.089Z,75.50
2019-05-16T07:06:37.818Z,76.30
2019-05-16T07:08:52.179Z,75.30
2019-05-16T07:11:30.476Z,75.20
2019-05-16T07:14:01.237Z,73.90
2019-05-16T07:16:46.917Z,72.70
2019-05-16T07:19:20.642Z,74.20
2019-05-16T07:21:50.835Z,73.40
2019-05-16T07:24:20.950Z,74.20
2019-05-16T07:26:50.670Z,73.80
2019-05-16T07:29:20.754Z,73.50
2019-05-16T07:31:52.420Z,73.60
2019-05-16T07:34:22.306Z,73.40
2019-05-16T07:36:52.315Z,73.40
2019-05-16T07:39:22.317Z,72.70
2019-05-16T07:41:52.054Z,72.70
2019-05-16T07:44:21.765Z,72.80
2019-05-16T07:46:51.808Z,72.30
2019-05-16T07:49:21.775Z,73.20
2019-05-16T07:51:51.525Z,73.60
2019-05-16T07:54:21.508Z,73.70
2019-05-16T07:56:59.439Z,74.60
2019-05-16T07:59:29.796Z,74.90
2019-05-16T08:02:01.530Z,75.40
2019-05-16T08:04:32.945Z,76.40
2019-05-16T08:07:05.820Z,77.90
2019-05-16T08:09:35.922Z,78.60
2019-05-16T08:12:06.048Z,77.40
2019-05-16T08:14:35.965Z,78.20
2019-05-16T08:17:05.906Z,78.30
2019-05-16T08:19:36.464Z,79.10
2019-05-16T08:22:06.534Z,79.90
2019-05-16T08:24:36.393Z,80.10
2019-05-16T08:27:07.776Z,80.10
2019-05-16T08:29:39.869Z,79.90
2019-05-16T08:32:11.586Z,79.30
2019-05-16T08:34:41.692Z,80.50
2019-05-16T08:37:32.784Z,80.60
2019-05-16T08:39:43.584Z,80.10
2019-05-16T08:42:13.410Z,81.00
2019-05-16T08:44:44.674Z,80.70
2019-05-16T08:47:14.918Z,81.60
2019-05-16T08:49:44.668Z,81.80
2019-05-16T08:52:14.487Z,81.10
2019-05-16T08:54:44.304Z,80.90
2019-05-16T08:57:27.118Z,82.30
2019-05-16T08:59:52.093Z,83.20
2019-05-16T09:02:22.004Z,84.40
2019-05-16T09:04:53.470Z,84.10
2019-05-16T09:09:52.745Z,84.80
2019-05-16T09:10:26.103Z,84.80
2019-05-16T09:12:22.720Z,84.40
2019-05-16T09:14:52.672Z,84.70
2019-05-16T09:17:22.845Z,84.90
2019-05-16T09:19:52.508Z,85.00
2019-05-16T09:22:22.485Z,85.40
2019-05-16T09:24:52.154Z,84.80
2019-05-16T09:27:21.890Z,84.60
2019-05-16T09:29:51.669Z,84.50
2019-05-16T09:32:22.339Z,84.20
2019-05-16T09:34:52.671Z,83.60
2019-05-16T09:37:22.312Z,83.20
2019-05-16T09:39:52.068Z,82.80
2019-05-16T09:42:21.781Z,82.60
2019-05-16T09:44:51.589Z,82.50
2019-05-16T09:47:22.585Z,81.50
2019-05-16T09:49:52.339Z,81.20
2019-05-16T09:52:23.433Z,82.10
2019-05-16T09:54:57.494Z,81.80
2019-05-16T09:57:27.903Z,81.20
2019-05-16T09:59:59.426Z,82.10
2019-05-16T10:02:29.247Z,82.40
2019-05-16T10:04:59.095Z,80.70
2019-05-16T10:07:29.088Z,80.50
2019-05-16T10:09:58.943Z,78.60
2019-05-16T10:12:28.937Z,79.30
2019-05-16T10:14:59.747Z,78.50
2019-05-16T10:17:29.840Z,77.50
2019-05-16T10:20:00.357Z,76.40
2019-05-16T10:22:30.888Z,76.90
2019-05-16T10:25:00.689Z,75.30
2019-05-16T10:27:30.417Z,74.60
2019-05-16T10:30:01.417Z,72.80
2019-05-16T10:32:31.819Z,70.40
2019-05-16T10:35:01.634Z,69.10
2019-05-16T10:37:31.874Z,67.40
2019-05-16T10:40:02.001Z,64.40
2019-05-16T10:42:31.864Z,64.50
2019-05-16T10:45:01.646Z,65.00
2019-05-16T10:47:31.552Z,64.20
2019-05-16T10:50:01.382Z,62.30
2019-05-16T10:52:32.629Z,62.80
2019-05-16T10:55:02.966Z,62.90
2019-05-16T10:57:32.981Z,63.00
2019-05-16T11:00:12.401Z,64.50
2019-05-16T11:02:36.918Z,65.30
2019-05-16T11:05:22.668Z,66.00
2019-05-16T11:07:38.474Z,67.20
2019-05-16T11:10:08.868Z,67.60
2019-05-16T11:12:50.020Z,65.80
2019-05-16T11:15:11.564Z,65.10
2019-05-16T11:17:42.088Z,62.80
2019-05-16T11:20:12.627Z,61.10
2019-05-16T11:22:42.478Z,59.00
2019-05-16T11:25:24.081Z,58.90
2019-05-16T11:27:43.772Z,57.60
2019-05-16T11:30:17.822Z,58.00
2019-05-16T11:32:46.926Z,58.00
2019-05-16T11:35:17.460Z,58.80
2019-05-16T11:37:47.420Z,58.90
2019-05-16T11:40:18.087Z,59.30
2019-05-16T11:43:05.064Z,59.80
2019-05-16T11:45:20.202Z,58.20
2019-05-16T11:47:49.986Z,59.50
2019-05-16T11:50:20.370Z,57.10
2019-05-16T11:52:50.398Z,58.70
2019-05-16T11:55:20.144Z,58.60
2019-05-16T11:57:49.915Z,59.10
2019-05-16T12:00:21.168Z,59.50
2019-05-16T12:02:50.908Z,59.50
2019-05-16T12:05:20.724Z,60.30
2019-05-16T12:07:50.772Z,61.40
2019-05-16T12:10:21.122Z,63.20
2019-05-16T12:12:51.268Z,63.80
2019-05-16T12:15:21.755Z,63.80
2019-05-16T12:18:00.773Z,63.50
2019-05-16T12:20:23.716Z,63.40
2019-05-16T12:22:54.138Z,63.20
2019-05-16T12:25:24.095Z,63.80
2019-05-16T12:27:56.931Z,63.80
2019-05-16T12:30:26.426Z,64.20
2019-05-16T12:32:58.126Z,64.00
2019-05-16T12:35:27.893Z,64.50
2019-05-16T12:37:57.840Z,63.30
2019-05-16T12:40:27.937Z,63.10
2019-05-16T12:42:57.686Z,63.10
2019-05-16T12:45:27.710Z,64.30
2019-05-16T12:47:57.579Z,65.20
2019-05-16T12:50:28.711Z,66.00
2019-05-16T12:52:58.777Z,67.00
2019-05-16T12:55:28.816Z,67.40
2019-05-16T12:58:12.323Z,67.60
2019-05-16T13:00:30.226Z,68.10
2019-05-16T13:06:03.213Z,68.50
2019-05-16T13:08:32.981Z,68.70
2019-05-16T13:11:03.103Z,69.00
2019-05-16T13:13:37.253Z,68.70
2019-05-16T13:16:07.570Z,69.10
2019-05-16T13:18:43.639Z,69.10
2019-05-16T13:21:39.317Z,69.60
2019-05-16T13:24:13.579Z,70.40
2019-05-16T13:29:42.216Z,68.40
2019-05-16T13:32:12.542Z,68.60
2019-05-16T13:34:42.391Z,68.40
2019-05-16T13:37:12.212Z,68.60
2019-05-16T13:39:42.074Z,69.00
2019-05-16T13:42:12.240Z,68.80
2019-05-16T13:44:42.075Z,69.00
2019-05-16T13:47:11.893Z,69.00
2019-05-16T13:49:41.607Z,68.80
2019-05-16T13:52:11.806Z,68.50
2019-05-16T13:54:41.868Z,67.90
2019-05-16T13:57:11.650Z,67.40
2019-05-16T13:59:41.433Z,68.00
2019-05-16T14:02:11.448Z,68.80
2019-05-16T14:04:41.234Z,68.90
2019-05-16T14:07:11.107Z,68.70
2019-05-16T14:09:40.885Z,68.80
2019-05-16T14:12:10.574Z,69.00
2019-05-16T14:14:42.488Z,69.20
2019-05-16T14:17:14.574Z,69.00
2019-05-16T14:19:44.117Z,69.50
2019-05-16T14:22:13.846Z,69.50
2019-05-16T14:24:43.573Z,69.30
2019-05-16T14:27:13.488Z,69.10
2019-05-16T14:29:43.277Z,69.60
2019-05-16T14:32:13.182Z,69.60
2019-05-16T14:34:47.056Z,69.30
2019-05-16T14:37:17.624Z,69.80
2019-05-16T14:39:49.002Z,69.10
2019-05-16T14:42:19.125Z,69.00
2019-05-16T14:45:04.855Z,69.50
2019-05-16T14:47:20.642Z,69.40
2019-05-16T14:49:50.693Z,69.20
2019-05-16T14:52:20.511Z,69.20
2019-05-16T14:54:50.900Z,69.20
2019-05-16T14:57:20.752Z,69.70
2019-05-16T14:59:50.411Z,69.70
2019-05-16T15:02:20.175Z,69.70
2019-05-16T15:04:49.984Z,69.90
2019-05-16T15:07:20.055Z,69.60
2019-05-16T15:09:49.866Z,69.90
2019-05-16T15:12:19.765Z,70.30
2019-05-16T15:14:49.519Z,70.30
2019-05-16T15:17:19.618Z,70.70
2019-05-16T15:19:49.435Z,70.50
2019-05-16T15:22:19.204Z,70.70
2019-05-16T15:24:49.126Z,70.70
2019-05-16T15:27:19.534Z,71.00
2019-05-16T15:29:50.910Z,69.00
2019-05-16T15:32:22.617Z,66.50
2019-05-16T15:34:52.486Z,65.60
2019-05-16T15:37:22.672Z,65.30
2019-05-16T15:39:54.296Z,65.60
2019-05-16T15:42:24.225Z,65.90
2019-05-16T15:44:54.036Z,66.10
2019-05-16T15:47:24.602Z,66.10
2019-05-16T15:49:56.627Z,66.30
2019-05-16T15:52:27.560Z,66.60
2019-05-16T15:55:00.815Z,66.50
2019-05-16T15:57:31.090Z,66.30
2019-05-16T16:00:01.378Z,66.50
2019-05-16T16:02:32.014Z,66.30
2019-05-16T16:05:01.840Z,66.10
2019-05-16T16:07:31.614Z,66.10
2019-05-16T16:10:01.955Z,66.50
2019-05-16T16:12:32.106Z,66.60
2019-05-16T16:15:01.810Z,66.60
2019-05-16T16:17:31.745Z,66.20
2019-05-16T16:20:01.692Z,66.10
2019-05-16T16:22:33.704Z,66.40
2019-05-16T16:25:03.319Z,67.10
2019-05-16T16:27:33.491Z,66.40
2019-05-16T16:30:06.673Z,66.30
2019-05-16T16:32:38.008Z,66.50
2019-05-16T16:35:08.091Z,66.60
2019-05-16T16:37:38.319Z,66.40
2019-05-16T16:41:36.901Z,66.40
2019-05-16T16:43:27.058Z,66.50
2019-05-16T16:59:50.268Z,67.60
2019-05-16T17:05:41.099Z,69.70
2019-05-16T17:08:16.831Z,69.00
2019-05-16T17:10:51.043Z,69.30
2019-05-16T17:13:22.562Z,69.00
2019-05-16T17:15:56.835Z,70.00
2019-05-16T17:18:29.546Z,71.40
2019-05-16T17:21:04.711Z,72.60
2019-05-16T17:23:49.271Z,73.40
2019-05-16T17:26:37.747Z,73.40
2019-05-16T17:28:59.478Z,73.00
2019-05-16T17:31:29.544Z,72.80
2019-05-16T17:34:00.622Z,73.70
2019-05-16T17:36:31.326Z,73.20
2019-05-16T17:39:01.938Z,73.40
2019-05-16T17:41:31.745Z,71.70
2019-05-16T17:44:01.858Z,71.30
2019-05-16T17:46:36.835Z,71.00
2019-05-16T17:49:03.420Z,70.50
2019-05-16T17:51:33.403Z,70.20
2019-05-16T17:54:03.303Z,70.20
2019-05-16T17:56:33.486Z,70.10
2019-05-16T17:59:03.284Z,70.10
2019-05-16T18:01:39.953Z,70.20
2019-05-16T18:04:27.087Z,71.00
2019-05-16T18:17:02.273Z,76.60
2019-05-16T18:19:31.979Z,75.40
2019-05-16T18:22:02.111Z,75.40
2019-05-16T18:24:32.176Z,74.80
2019-05-16T18:27:06.581Z,74.20
2019-05-16T18:29:36.492Z,73.60
2019-05-16T18:32:07.130Z,73.40
2019-05-16T18:34:37.700Z,73.70
2019-05-16T18:37:07.777Z,74.20
2019-05-16T18:39:38.690Z,75.00
2019-05-16T18:42:10.228Z,75.50
2019-05-16T18:44:40.288Z,75.70
2019-05-16T18:47:11.478Z,75.90
2019-05-16T18:49:47.722Z,76.20
2019-05-16T18:52:20.644Z,76.50
2019-05-16T18:54:50.642Z,76.50
2019-05-16T18:57:21.971Z,76.60
2019-05-16T18:59:51.860Z,76.90
2019-05-16T19:02:22.865Z,76.80
2019-05-16T19:04:52.685Z,76.80
2019-05-16T19:07:29.279Z,77.00
2019-05-16T19:09:59.176Z,77.00
2019-05-16T19:12:32.424Z,77.00
2019-05-16T19:15:02.725Z,77.10
2019-05-16T19:17:58.619Z,77.20
2019-05-16T19:20:28.195Z,77.30
2019-05-16T19:26:23.913Z,78.00
2019-05-16T19:29:00.154Z,78.50
2019-05-16T19:32:06.600Z,79.00
2019-05-16T19:40:03.178Z,79.50
2019-05-16T19:51:24.334Z,80.20
2019-05-16T20:00:39.671Z,80.20
2019-05-16T20:03:07.825Z,80.10
2019-05-16T20:05:37.905Z,80.50
2019-05-16T20:08:08.284Z,81.30
2019-05-16T20:10:38.234Z,81.50
2019-05-16T20:13:08.083Z,81.50
2019-05-16T20:15:41.444Z,81.80
2019-05-16T20:18:11.263Z,82.50
2019-05-16T20:20:42.288Z,82.80
2019-05-16T20:23:12.086Z,82.80
2019-05-16T20:25:41.897Z,82.80
2019-05-16T20:28:11.585Z,83.20
2019-05-16T20:30:41.630Z,83.40
2019-05-16T20:33:11.409Z,84.00
2019-05-16T20:35:41.281Z,84.50
2019-05-16T20:38:11.815Z,84.80
2019-05-16T20:40:41.737Z,85.20
2019-05-16T20:43:16.918Z,85.60
2019-05-16T20:45:43.048Z,86.10
2019-05-16T20:48:15.336Z,86.80
2019-05-16T20:50:48.816Z,88.30
2019-05-16T20:53:18.500Z,89.60
2019-05-16T20:55:49.621Z,90.60
2019-05-16T20:58:21.633Z,91.00
2019-05-16T21:00:53.389Z,91.50
2019-05-16T21:03:27.072Z,91.80
2019-05-16T21:06:00.537Z,92.00
2019-05-16T21:08:30.307Z,92.00
2019-05-16T21:11:00.050Z,92.00
2019-05-16T21:13:30.682Z,92.10
2019-05-16T21:16:00.427Z,92.20
2019-05-16T21:18:31.505Z,92.80
2019-05-16T21:21:04.140Z,92.90
2019-05-16T21:23:36.109Z,92.50
2019-05-16T21:26:05.226Z,92.80
2019-05-16T21:28:37.922Z,92.90
2019-05-16T21:31:10.648Z,92.90
2019-05-16T21:33:41.913Z,93.00
2019-05-16T21:36:13.631Z,93.00
2019-05-16T21:38:46.801Z,93.10
2019-05-16T21:41:16.701Z,93.00
2019-05-16T21:43:46.974Z,93.10
2019-05-16T21:46:20.231Z,93.10
2019-05-16T21:48:50.750Z,93.10
2019-05-16T21:51:20.852Z,93.20
2019-05-16T21:53:50.618Z,93.40
2019-05-16T21:56:20.588Z,93.40
2019-05-16T21:58:50.220Z,93.50
2019-05-16T22:01:22.252Z,93.50
2019-05-16T22:03:52.366Z,93.60
2019-05-16T22:06:22.832Z,93.60
2019-05-16T22:08:53.691Z,93.50
2019-05-16T22:11:26.284Z,93.40
2019-05-16T22:13:57.031Z,93.40
2019-05-16T22:16:27.886Z,93.50
2019-05-16T22:18:58.066Z,93.50
2019-05-16T22:21:28.318Z,93.60
2019-05-16T22:23:58.383Z,93.70
2019-05-16T22:26:29.146Z,93.60
2019-05-16T22:28:59.130Z,93.60
2019-05-16T22:31:29.526Z,93.50
2019-05-16T22:33:59.946Z,93.00
2019-05-16T22:36:31.359Z,93.60
2019-05-16T22:39:01.590Z,93.70
2019-05-16T22:41:31.581Z,94.00
2019-05-16T22:44:02.171Z,94.20
2019-05-16T22:46:32.276Z,94.30
2019-05-16T22:49:02.398Z,94.40
2019-05-16T22:51:32.705Z,94.40
2019-05-16T22:54:02.844Z,94.50
2019-05-16T22:56:32.887Z,94.70
2019-05-16T22:59:03.111Z,94.90
2019-05-16T23:01:33.520Z,94.90
2019-05-16T23:04:03.960Z,95.10
2019-05-16T23:06:36.322Z,95.20
2019-05-16T23:09:07.505Z,95.30
2019-05-16T23:11:38.100Z,95.30
2019-05-16T23:14:08.243Z,95.40
2019-05-16T23:16:38.477Z,95.50
2019-05-16T23:19:09.020Z,95.60
2019-05-16T23:21:40.592Z,95.70
2019-05-16T23:24:11.129Z,95.60
2019-05-16T23:26:41.752Z,95.60
2019-05-16T23:29:11.913Z,95.60
2019-05-16T23:31:50.464Z,95.60
2019-05-16T23:34:27.313Z,95.60
2019-05-16T23:37:20.684Z,95.60
2019-05-16T23:39:57.961Z,95.70
2019-05-16T23:42:36.883Z,95.90
2019-05-16T23:45:08.807Z,96.10
2019-05-16T23:47:36.490Z,96.30
2019-05-16T23:50:10.404Z,96.40
2019-05-16T23:52:47.081Z,96.60
2019-05-16T23:55:29.708Z,96.60
2019-05-16T23:58:08.098Z,96.70
